ADDS TAF Board (Experimental) INFO Settings
IDs: Format: Expanded Condensed

KPIT - Pittsburgh Intl, PA, US

Issued at 1730 UTC 27 May 2015
Updated at: 1948 UTC 27 May 2015
Time1851Z 27/20Z 27/21Z 27/22Z 27/23Z 28/00Z 28/01Z 28/02Z 28/03Z 28/04Z 28/05Z 28/06Z 28/07Z 28/08Z
Type OBS PRVL PRVL PRVL PRVL PRVL PRVL PRVL PRVL PRVL PRVL PRVL PRVL PRVL
VIS 10 >6 >6 >6 >6 >6 >6 >6 >6 >6 >6 >6 >6 >6
CIG 250 35 35 35 35 35 35 35 40 40 40 40 40 25
Cover BKN BKN BKN BKN BKN BKN BKN BKN OVC OVC OVC OVC OVC BKN
FltCat VFR VFR VFR VFR VFR VFR VFR VFR VFR VFR VFR VFR VFR MVFR
WX -- -- -- -- -- -- -- -- VCSH VCSH VCSH VCSH VCSH --
WDir 240 210 210 210 210 210 210 210 210 210 210 210 210 260
WSpd 11 12 12 12 12 12 12 12 6 6 6 6 6 6
WGst 19 -- -- -- -- -- -- -- -- -- -- -- -- --
R10/28
XWnd -6 -11 -11 -11 -11 -11 -11 -11 -5 -5 -5 -5 -5 -1
XGst -10 -- -- -- -- -- -- -- -- -- -- -- -- --
HWnd -9 -6 -6 -6 -6 -6 -6 -6 -3 -3 -3 -3 -3 -6
HGst -16 -- -- -- -- -- -- -- -- -- -- -- -- --
R14/32
XWnd -11 -12 -12 -12 -12 -12 -12 -12 -6 -6 -6 -6 -6 -5
XGst -18 -- -- -- -- -- -- -- -- -- -- -- -- --
HWnd -3 3 3 3 3 3 3 3 2 2 2 2 2 -3
HGst -5 -- -- -- -- -- -- -- -- -- -- -- -- --

NOTE: TEMPO conditions in [brackets]. Keep in mind TEMPO conditions might be better (lower impact) than prevailing conditions.

Raw TAF
KPIT 271730Z 2718/2824 21012KT P6SM BKN035
  FM280300 21006KT P6SM VCSH OVC040
  FM280800 26006KT P6SM BKN025
  FM281400 31006KT P6SM SCT040


Raw METAR
KPIT 271851Z 24011G19KT 10SM SCT041 SCT055 BKN250 26/15 A3011 RMK AO2 SLP196 T02610150
KPIT 271751Z 21010KT 10SM FEW033 SCT042 BKN060 BKN250 26/16 A3013 RMK AO2 SLP203 T02560161 10256 20189 58007
KPIT 271651Z 21010KT 10SM SCT028 SCT035 SCT250 24/17 A3014 RMK AO2 SLP207 T02440167

METAR Board
Radar Display
Forecast Discussion

TAF Board Legend

Potential Impact
Threat None Slight Moderate High
Visibility (sm) ≥5.1 5.1>X≥3 3>X≥1 <1
Ceiling (100 ft) ≥30.1 30.1>X≥10 10>X≥5 <5
Wind Speed (kt) <10 10≤X<20 20≤X<30 ≥30
Wind Gust (kt) <15 15≤X<25 25≤X<35 ≥35
Weather No Wx Reported VCTS,-TS,-FZRA,SN TS,FZRA +TS,+FZRA,+SN